aviador You're here:

FAOR Decoded Metar

TAMBO INTL AIRPT in SOUTH AFRICA
Report Time2018-01-17 18:00:00
UTC Time2018-01-17 18:14:40
Flight Rules vfr VFR
Wind050° at 05 kt
W.Rank050° ranks 22
Current wind is below 050° avg. (7.2)
Visibility9999 m
Phenomena:N/A
Clouds:N/A
Expected CloudBase > 5,200 ft AGL from Temp-Dew spread
CeilingNone
Temp24°C (ISA +20)
Dew Point11°C (44% RH)
AAT22.5°C
QNH1021 hPa
Density Alt7,759 ft
Elevation5,550 ft
Report Wrong Elevation
Raw Report
METAR FAOR 171800Z 05005KT CAVOK 24/11 Q1021 NOSIG=

Extra information for FAOR:More info

Metar Taf Metar & Taf Last 4 Metars F.Rules Stats Wind Profile Meteogram Temp Stats Airport Information Weather charts Add Link Nearby VenuesMetar ALERT Operation Metar Decoded Social comments